createdAt,value
2022-11-20T00:02:19.788Z,71.84
2022-11-20T00:04:52.661Z,71.82
2022-11-20T00:07:25.626Z,71.97
2022-11-20T00:09:58.513Z,72.56
2022-11-20T00:12:31.309Z,72.94
2022-11-20T00:15:06.293Z,73.96
2022-11-20T00:17:39.417Z,74.03
2022-11-20T00:20:14.039Z,74.01
2022-11-20T00:22:47.059Z,74.76
2022-11-20T00:25:19.929Z,75.38
2022-11-20T00:27:52.837Z,74.70
2022-11-20T00:30:27.003Z,75.12
2022-11-20T00:32:59.947Z,75.51
2022-11-20T00:35:32.711Z,75.30
2022-11-20T00:38:05.691Z,75.49
2022-11-20T00:40:38.473Z,75.16
2022-11-20T00:43:11.314Z,75.38
2022-11-20T00:45:45.568Z,75.50
2022-11-20T00:48:18.577Z,74.57
2022-11-20T00:50:51.485Z,74.71
2022-11-20T00:53:24.324Z,74.59
2022-11-20T00:55:58.324Z,74.84
2022-11-20T00:58:32.438Z,74.68
2022-11-20T01:01:08.605Z,74.45
2022-11-20T01:03:43.725Z,74.45
2022-11-20T01:06:18.865Z,74.09
2022-11-20T01:08:53.007Z,74.18
2022-11-20T01:11:28.102Z,73.83
2022-11-20T01:14:03.933Z,73.06
2022-11-20T01:16:40.586Z,73.16
2022-11-20T01:19:17.898Z,73.07
2022-11-20T01:21:54.400Z,72.71
2022-11-20T01:24:27.281Z,73.12
2022-11-20T01:27:00.087Z,73.23
2022-11-20T01:29:32.890Z,73.29
2022-11-20T01:32:07.169Z,73.11
2022-11-20T01:34:40.088Z,73.35
2022-11-20T01:37:12.869Z,73.08
2022-11-20T01:39:45.809Z,72.99
2022-11-20T01:42:36.123Z,73.12
2022-11-20T01:45:42.156Z,73.55
2022-11-20T01:48:16.898Z,73.71
2022-11-20T01:50:50.854Z,73.78
2022-11-20T01:53:27.924Z,73.99
2022-11-20T01:56:03.857Z,73.96
2022-11-20T01:58:40.280Z,73.89
2022-11-20T02:01:13.742Z,74.02
2022-11-20T02:03:49.276Z,73.59
2022-11-20T02:06:26.345Z,73.70
2022-11-20T02:08:59.146Z,73.45
2022-11-20T02:11:32.860Z,73.41
2022-11-20T02:14:05.094Z,73.58
2022-11-20T02:16:41.414Z,73.57
2022-11-20T02:19:24.257Z,73.35
2022-11-20T02:22:04.200Z,73.22
2022-11-20T02:24:38.732Z,73.14
2022-11-20T02:27:14.318Z,73.34
2022-11-20T02:29:50.409Z,73.46
2022-11-20T02:32:24.832Z,73.52
2022-11-20T02:34:57.872Z,72.93
2022-11-20T02:37:35.273Z,72.59
2022-11-20T02:40:11.554Z,72.89
2022-11-20T02:42:44.543Z,72.94
2022-11-20T02:45:17.344Z,73.05
2022-11-20T02:47:50.617Z,72.73
2022-11-20T02:50:23.458Z,72.42
2022-11-20T02:52:56.298Z,72.42
2022-11-20T02:55:30.707Z,72.27
2022-11-20T02:58:03.655Z,72.27
2022-11-20T03:00:36.790Z,72.20
2022-11-20T03:03:09.735Z,71.63
2022-11-20T03:05:42.828Z,71.99
2022-11-20T03:08:15.672Z,72.14
2022-11-20T03:10:49.827Z,71.89
2022-11-20T03:13:22.841Z,72.07
2022-11-20T03:15:55.695Z,72.12
2022-11-20T03:18:31.078Z,71.92
2022-11-20T03:21:04.432Z,72.04
2022-11-20T03:23:38.116Z,71.84
2022-11-20T03:26:15.064Z,71.65
2022-11-20T03:28:49.634Z,71.48
2022-11-20T03:31:24.810Z,71.95
2022-11-20T03:33:58.856Z,71.39
2022-11-20T03:36:32.268Z,71.21
2022-11-20T03:39:05.133Z,71.72
2022-11-20T03:41:41.099Z,71.33
2022-11-20T03:44:14.067Z,71.33
2022-11-20T03:46:46.861Z,71.06
2022-11-20T03:49:19.969Z,70.91
2022-11-20T03:51:52.920Z,71.56
2022-11-20T03:54:25.871Z,71.30
2022-11-20T03:57:00.220Z,71.21
2022-11-20T03:59:33.091Z,71.48
2022-11-20T04:02:05.973Z,70.94
2022-11-20T04:04:38.845Z,71.07
2022-11-20T04:07:11.921Z,71.13
2022-11-20T04:09:44.805Z,70.85
2022-11-20T04:12:19.085Z,71.24
2022-11-20T04:14:51.958Z,70.55
2022-11-20T04:17:24.791Z,70.80
2022-11-20T04:19:57.972Z,70.66
2022-11-20T04:22:30.943Z,70.82
2022-11-20T04:25:03.970Z,70.81
2022-11-20T04:27:38.206Z,70.20
2022-11-20T04:30:12.052Z,70.55
2022-11-20T04:32:45.032Z,70.30
2022-11-20T04:35:18.040Z,70.48
2022-11-20T04:37:53.589Z,70.39
2022-11-20T04:40:26.559Z,70.26
2022-11-20T04:43:01.041Z,70.42
2022-11-20T04:45:33.881Z,70.63
2022-11-20T04:48:07.234Z,70.67
2022-11-20T04:50:42.404Z,71.23
2022-11-20T04:53:15.664Z,70.93
2022-11-20T04:55:49.130Z,69.94
2022-11-20T04:58:24.579Z,69.63
2022-11-20T05:01:04.389Z,68.85
2022-11-20T05:03:41.975Z,68.59
2022-11-20T05:06:17.353Z,68.55
2022-11-20T05:08:50.541Z,68.70
2022-11-20T05:11:23.897Z,68.88
2022-11-20T05:14:01.209Z,68.78
2022-11-20T05:16:37.357Z,68.98
2022-11-20T05:19:10.392Z,69.08
2022-11-20T05:21:43.252Z,68.74
2022-11-20T05:24:16.045Z,68.57
2022-11-20T05:26:48.848Z,68.77
2022-11-20T05:29:23.312Z,68.41
2022-11-20T05:31:56.409Z,69.02
2022-11-20T05:34:29.249Z,68.92
2022-11-20T05:37:02.125Z,69.57
2022-11-20T05:39:35.004Z,69.94
2022-11-20T05:42:25.661Z,70.68
2022-11-20T05:45:00.310Z,70.57
2022-11-20T05:47:35.694Z,71.68
2022-11-20T05:50:08.950Z,71.42
2022-11-20T05:52:41.819Z,72.10
2022-11-20T05:55:14.636Z,72.71
2022-11-20T05:57:47.547Z,72.78
2022-11-20T06:00:22.175Z,72.90
2022-11-20T06:02:55.125Z,73.19
2022-11-20T06:05:27.936Z,73.08
2022-11-20T06:08:02.693Z,73.32
2022-11-20T06:10:35.540Z,73.61
2022-11-20T06:13:08.710Z,73.60
2022-11-20T06:15:43.573Z,73.25
2022-11-20T06:18:16.442Z,73.66
2022-11-20T06:20:49.270Z,73.64
2022-11-20T06:23:22.112Z,73.69
2022-11-20T06:25:54.925Z,73.26
2022-11-20T06:28:27.732Z,73.21
2022-11-20T06:31:02.332Z,73.23
2022-11-20T06:33:35.889Z,73.43
2022-11-20T06:36:11.037Z,73.15
2022-11-20T06:38:44.909Z,73.61
2022-11-20T06:41:20.828Z,73.57
2022-11-20T06:43:54.153Z,72.96
2022-11-20T06:46:28.409Z,72.53
2022-11-20T06:49:01.396Z,72.42
2022-11-20T06:51:34.480Z,72.42
2022-11-20T06:54:07.479Z,72.19
2022-11-20T06:56:40.312Z,72.11
2022-11-20T06:59:13.291Z,72.49
2022-11-20T07:01:47.424Z,72.60
2022-11-20T07:04:20.383Z,72.69
2022-11-20T07:06:53.580Z,72.15
2022-11-20T07:09:26.628Z,72.08
2022-11-20T07:11:59.650Z,72.28
2022-11-20T07:14:32.512Z,71.62
2022-11-20T07:17:06.779Z,71.77
2022-11-20T07:19:39.695Z,71.42
2022-11-20T07:22:12.505Z,71.66
2022-11-20T07:24:46.272Z,71.76
2022-11-20T07:27:19.096Z,71.56
2022-11-20T07:29:51.887Z,71.84
2022-11-20T07:32:26.589Z,71.71
2022-11-20T07:34:59.917Z,71.83
2022-11-20T07:37:33.062Z,71.79
2022-11-20T07:40:07.085Z,71.67
2022-11-20T07:42:39.928Z,71.93
2022-11-20T07:45:12.792Z,72.20
2022-11-20T07:47:47.039Z,72.25
2022-11-20T07:50:20.503Z,72.12
2022-11-20T07:52:53.507Z,72.05
2022-11-20T07:55:26.623Z,72.06
2022-11-20T07:57:59.843Z,72.53
2022-11-20T08:00:33.033Z,71.82
2022-11-20T08:03:07.970Z,71.89
2022-11-20T08:05:40.894Z,71.73
2022-11-20T08:08:14.034Z,72.00
2022-11-20T08:10:46.808Z,72.39
2022-11-20T08:13:37.080Z,72.14
2022-11-20T08:16:09.890Z,71.63
2022-11-20T08:18:44.125Z,71.00
2022-11-20T08:21:17.025Z,71.14
2022-11-20T08:23:49.900Z,70.95
2022-11-20T08:26:24.402Z,70.96
2022-11-20T08:28:57.762Z,71.10
2022-11-20T08:31:30.837Z,70.95
2022-11-20T08:34:08.906Z,69.87
2022-11-20T08:36:42.393Z,70.06
2022-11-20T08:39:15.568Z,69.15
2022-11-20T08:41:48.384Z,68.84
2022-11-20T08:44:21.273Z,68.39
2022-11-20T08:46:54.097Z,67.41
2022-11-20T08:49:28.312Z,67.22
2022-11-20T08:52:01.252Z,66.94
2022-11-20T08:54:34.167Z,67.55
2022-11-20T08:57:07.054Z,67.29
2022-11-20T09:02:33.418Z,68.51
2022-11-20T09:05:08.645Z,68.49
2022-11-20T09:07:42.315Z,69.69
2022-11-20T09:10:30.430Z,69.65
2022-11-20T09:13:03.578Z,69.86
2022-11-20T09:15:36.543Z,70.13
2022-11-20T09:18:09.379Z,69.25
2022-11-20T09:20:44.504Z,69.32
2022-11-20T09:23:17.860Z,69.74
2022-11-20T09:25:51.086Z,69.93
2022-11-20T09:28:23.978Z,70.10
2022-11-20T09:30:56.896Z,69.64
2022-11-20T09:33:29.951Z,69.28
2022-11-20T09:36:04.704Z,69.14
2022-11-20T09:38:37.749Z,69.05
2022-11-20T09:41:32.298Z,69.69
2022-11-20T09:44:13.894Z,68.55
2022-11-20T09:46:55.984Z,68.19
2022-11-20T09:49:38.528Z,67.49
2022-11-20T09:52:24.217Z,67.25
2022-11-20T09:54:57.443Z,67.32
2022-11-20T09:57:36.273Z,67.04
2022-11-20T10:00:13.256Z,67.20
2022-11-20T10:02:52.049Z,67.20
2022-11-20T10:05:29.400Z,66.24
2022-11-20T10:08:17.113Z,66.25
2022-11-20T10:10:56.127Z,66.36
2022-11-20T10:13:42.289Z,67.25
2022-11-20T10:16:30.657Z,67.65
2022-11-20T10:19:17.177Z,67.32
2022-11-20T10:22:01.009Z,66.53
2022-11-20T10:24:54.993Z,66.52
2022-11-20T10:27:45.531Z,66.27
2022-11-20T10:30:21.148Z,65.65
2022-11-20T10:32:57.595Z,65.47
2022-11-20T10:35:36.127Z,66.08
2022-11-20T10:38:20.150Z,65.53
2022-11-20T10:41:19.994Z,65.77
2022-11-20T10:43:56.133Z,66.67
2022-11-20T10:46:38.514Z,66.31
2022-11-20T10:49:17.641Z,66.26
2022-11-20T10:52:02.017Z,66.55
2022-11-20T10:54:41.316Z,65.55
2022-11-20T10:57:26.838Z,65.41
2022-11-20T11:00:06.697Z,65.35
2022-11-20T11:02:45.272Z,64.91
2022-11-20T11:05:29.960Z,65.29
2022-11-20T11:08:03.213Z,65.06
2022-11-20T11:10:44.325Z,64.53
2022-11-20T11:13:26.963Z,64.63
2022-11-20T11:16:00.262Z,65.07
2022-11-20T11:18:34.928Z,64.70
2022-11-20T11:21:07.761Z,64.76
2022-11-20T11:23:42.648Z,64.79
2022-11-20T11:26:22.996Z,63.06
2022-11-20T11:28:59.162Z,63.52
2022-11-20T11:31:33.984Z,63.01
2022-11-20T11:34:07.738Z,63.41
2022-11-20T11:36:40.657Z,63.44
2022-11-20T11:39:17.444Z,63.51
2022-11-20T11:41:51.278Z,63.33
2022-11-20T11:44:47.943Z,63.27
2022-11-20T11:47:25.390Z,63.22
2022-11-20T11:50:16.530Z,62.48
2022-11-20T11:52:58.596Z,62.87
2022-11-20T11:55:37.005Z,62.74
2022-11-20T11:58:19.829Z,61.95
2022-11-20T12:00:59.327Z,62.03
2022-11-20T12:03:37.800Z,61.78
2022-11-20T12:06:14.933Z,61.56
2022-11-20T12:08:55.303Z,61.94
2022-11-20T12:11:37.034Z,62.32
2022-11-20T12:14:16.697Z,62.62
2022-11-20T12:16:51.178Z,63.29
2022-11-20T12:19:24.197Z,63.82
2022-11-20T12:22:07.310Z,63.45
2022-11-20T12:24:53.958Z,63.50
2022-11-20T12:27:48.270Z,64.36
2022-11-20T12:30:22.393Z,63.69
2022-11-20T12:33:11.152Z,62.29
2022-11-20T12:35:58.133Z,61.70
2022-11-20T12:39:09.917Z,62.78
2022-11-20T12:42:21.494Z,61.37
2022-11-20T12:45:13.421Z,61.45
2022-11-20T12:47:53.973Z,64.86
2022-11-20T12:51:00.144Z,61.95
2022-11-20T12:53:39.742Z,61.64
2022-11-20T12:56:23.605Z,60.30
2022-11-20T12:59:08.728Z,60.62
2022-11-20T13:01:51.360Z,60.77
2022-11-20T13:04:41.427Z,59.88
2022-11-20T13:07:18.525Z,60.14
2022-11-20T13:09:53.397Z,59.64
2022-11-20T13:12:33.087Z,59.48
2022-11-20T13:15:17.333Z,58.80
2022-11-20T13:17:55.126Z,58.37
2022-11-20T13:20:28.994Z,58.66
2022-11-20T13:23:03.311Z,58.38
2022-11-20T13:25:38.486Z,58.79
2022-11-20T13:28:30.604Z,58.57
2022-11-20T13:31:03.487Z,59.29
2022-11-20T13:33:38.804Z,59.24
2022-11-20T13:36:24.877Z,59.69
2022-11-20T13:38:59.521Z,59.32
2022-11-20T13:41:36.370Z,60.18
2022-11-20T13:44:16.402Z,59.70
2022-11-20T13:46:49.734Z,60.33
2022-11-20T13:49:29.157Z,60.34
2022-11-20T13:52:22.749Z,60.86
2022-11-20T13:55:10.072Z,61.24
2022-11-20T13:58:12.127Z,61.90
2022-11-20T14:00:54.467Z,62.05
2022-11-20T14:03:59.041Z,62.54
2022-11-20T14:06:29.446Z,62.03
2022-11-20T14:09:02.435Z,63.31
2022-11-20T14:11:36.852Z,62.42
2022-11-20T14:14:20.109Z,62.42
2022-11-20T14:16:55.739Z,62.56
2022-11-20T14:19:32.457Z,62.27
2022-11-20T14:22:20.464Z,61.79
2022-11-20T14:25:06.732Z,61.49
2022-11-20T14:27:42.867Z,61.23
2022-11-20T14:30:18.712Z,61.08
2022-11-20T14:32:53.285Z,61.19
2022-11-20T14:35:31.331Z,60.32
2022-11-20T14:38:05.482Z,60.61
2022-11-20T14:40:38.608Z,60.70
2022-11-20T14:43:23.666Z,60.95
2022-11-20T14:46:02.222Z,61.31
2022-11-20T14:48:43.250Z,61.80
2022-11-20T14:51:29.134Z,61.70
2022-11-20T14:54:13.205Z,60.59
2022-11-20T14:56:56.535Z,60.88
2022-11-20T14:59:32.447Z,61.90
2022-11-20T15:02:07.799Z,62.57
2022-11-20T15:04:47.526Z,62.72
2022-11-20T15:07:28.107Z,61.77
2022-11-20T15:10:07.445Z,61.74
2022-11-20T15:12:47.743Z,62.68
2022-11-20T15:15:27.656Z,62.18
2022-11-20T15:18:00.813Z,62.74
2022-11-20T15:20:35.754Z,62.69
2022-11-20T15:23:13.275Z,62.29
2022-11-20T15:25:47.203Z,63.22
2022-11-20T15:28:22.724Z,62.96
2022-11-20T15:30:57.503Z,62.92
2022-11-20T15:33:30.333Z,63.45
2022-11-20T15:36:03.272Z,63.31
2022-11-20T15:38:36.271Z,63.54
2022-11-20T15:41:09.834Z,63.91
2022-11-20T15:43:42.847Z,63.55
2022-11-20T15:46:19.512Z,63.77
2022-11-20T15:48:56.415Z,64.19
2022-11-20T15:51:31.640Z,64.09
2022-11-20T15:54:11.594Z,64.19
2022-11-20T15:56:44.380Z,64.24
2022-11-20T15:59:17.299Z,64.61
2022-11-20T16:01:51.658Z,64.49
2022-11-20T16:04:25.004Z,65.03
2022-11-20T16:06:58.130Z,64.49
2022-11-20T16:09:33.578Z,65.04
2022-11-20T16:12:07.069Z,64.68
2022-11-20T16:14:57.322Z,64.79
2022-11-20T16:17:44.568Z,64.55
2022-11-20T16:20:18.141Z,64.90
2022-11-20T16:22:50.949Z,64.87
2022-11-20T16:25:23.749Z,64.88
2022-11-20T16:27:56.599Z,65.18
2022-11-20T16:30:31.926Z,65.43
2022-11-20T16:33:06.598Z,65.38
2022-11-20T16:35:39.741Z,65.86
2022-11-20T16:38:12.667Z,65.74
2022-11-20T16:40:45.632Z,65.91
2022-11-20T16:43:18.432Z,65.70
2022-11-20T16:45:51.272Z,65.92
2022-11-20T16:48:25.635Z,65.94
2022-11-20T16:50:58.418Z,65.78
2022-11-20T16:53:34.895Z,65.83
2022-11-20T16:56:12.084Z,65.94
2022-11-20T16:58:45.436Z,66.45
2022-11-20T17:01:21.398Z,66.65
2022-11-20T17:04:00.489Z,66.63
2022-11-20T17:06:35.399Z,66.64
2022-11-20T17:09:09.668Z,66.89
2022-11-20T17:11:42.782Z,66.80
2022-11-20T17:14:15.622Z,67.26
2022-11-20T17:16:48.937Z,67.24
2022-11-20T17:19:23.656Z,66.82
2022-11-20T17:21:56.486Z,67.24
2022-11-20T17:24:32.030Z,67.15
2022-11-20T17:27:05.316Z,67.04
2022-11-20T17:29:42.039Z,67.24
2022-11-20T17:32:15.317Z,67.06
2022-11-20T17:34:49.740Z,66.67
2022-11-20T17:37:22.590Z,66.69
2022-11-20T17:39:55.538Z,66.36
2022-11-20T17:42:29.653Z,66.07
2022-11-20T17:45:02.567Z,65.95
2022-11-20T17:47:36.540Z,65.88
2022-11-20T17:50:11.851Z,65.90
2022-11-20T17:52:44.715Z,66.01
2022-11-20T17:55:17.806Z,66.42
2022-11-20T17:57:52.575Z,66.40
2022-11-20T18:00:26.176Z,66.61
2022-11-20T18:02:59.268Z,66.51
2022-11-20T18:05:33.542Z,66.63
2022-11-20T18:08:06.491Z,67.16
2022-11-20T18:10:39.444Z,67.53
2022-11-20T18:13:12.270Z,67.16
2022-11-20T18:15:45.108Z,67.36
2022-11-20T18:18:17.923Z,67.13
2022-11-20T18:20:55.759Z,66.92
2022-11-20T18:23:28.594Z,67.57
2022-11-20T18:26:01.601Z,67.44
2022-11-20T18:28:38.467Z,67.50
2022-11-20T18:31:11.731Z,67.23
2022-11-20T18:33:44.575Z,67.30
2022-11-20T18:36:21.145Z,67.22
2022-11-20T18:38:56.963Z,67.65
2022-11-20T18:41:49.028Z,67.15
2022-11-20T18:44:40.601Z,68.04
2022-11-20T18:47:16.005Z,67.28
2022-11-20T18:49:52.585Z,67.60
2022-11-20T18:52:29.500Z,67.27
2022-11-20T18:55:03.177Z,67.41
2022-11-20T18:57:36.247Z,67.54
2022-11-20T19:00:10.449Z,67.03
2022-11-20T19:02:43.711Z,66.77
2022-11-20T19:05:16.712Z,66.75
2022-11-20T19:07:50.954Z,66.45
2022-11-20T19:10:24.407Z,66.67
2022-11-20T19:12:58.617Z,66.70
2022-11-20T19:15:31.598Z,66.97
2022-11-20T19:18:04.544Z,67.08
2022-11-20T19:20:37.376Z,66.42
2022-11-20T19:23:11.780Z,66.57
2022-11-20T19:25:44.620Z,67.30
2022-11-20T19:28:17.555Z,66.97
2022-11-20T19:30:50.382Z,66.99
2022-11-20T19:33:23.267Z,66.67
2022-11-20T19:35:56.116Z,67.16
2022-11-20T19:38:30.389Z,67.00
2022-11-20T19:41:03.274Z,67.66
2022-11-20T19:43:36.769Z,67.71
2022-11-20T19:46:09.877Z,67.82
2022-11-20T19:48:42.751Z,67.58
2022-11-20T19:51:17.944Z,68.10
2022-11-20T19:53:53.182Z,68.01
2022-11-20T19:56:27.069Z,68.26
2022-11-20T19:59:00.729Z,68.91
2022-11-20T20:01:33.950Z,69.24
2022-11-20T20:04:07.167Z,69.41
2022-11-20T20:06:41.707Z,69.62
2022-11-20T20:09:18.917Z,69.33
2022-11-20T20:11:51.831Z,69.77
2022-11-20T20:14:26.041Z,69.64
2022-11-20T20:16:59.058Z,70.32
2022-11-20T20:19:34.976Z,70.28
2022-11-20T20:22:08.295Z,70.65
2022-11-20T20:24:43.113Z,70.34
2022-11-20T20:27:18.886Z,70.52
2022-11-20T20:29:54.208Z,70.33
2022-11-20T20:32:27.478Z,70.03
2022-11-20T20:35:00.736Z,70.64
2022-11-20T20:37:33.686Z,70.76
2022-11-20T20:40:14.945Z,70.68
2022-11-20T20:42:48.818Z,70.74
2022-11-20T20:45:21.910Z,70.95
2022-11-20T20:47:56.009Z,71.04
2022-11-20T20:50:28.987Z,71.48
2022-11-20T20:53:02.297Z,71.33
2022-11-20T20:55:40.242Z,71.38
2022-11-20T20:58:13.471Z,71.45
2022-11-20T21:00:46.565Z,71.79
2022-11-20T21:03:20.857Z,71.43
2022-11-20T21:05:57.916Z,71.87
2022-11-20T21:08:31.721Z,71.49
2022-11-20T21:11:09.712Z,71.70
2022-11-20T21:13:45.880Z,71.91
2022-11-20T21:16:21.163Z,71.81
2022-11-20T21:18:54.291Z,72.04
2022-11-20T21:21:45.093Z,72.33
2022-11-20T21:24:18.680Z,72.02
2022-11-20T21:26:53.338Z,72.14
2022-11-20T21:29:28.215Z,72.48
2022-11-20T21:32:01.469Z,72.74
2022-11-20T21:34:35.065Z,72.60
2022-11-20T21:37:08.365Z,72.44
2022-11-20T21:39:50.771Z,72.76
2022-11-20T21:42:25.360Z,72.74
2022-11-20T21:44:58.437Z,72.46
2022-11-20T21:47:32.116Z,72.72
2022-11-20T21:50:05.675Z,72.32
2022-11-20T21:52:38.627Z,72.68
2022-11-20T21:55:12.165Z,72.49
2022-11-20T21:57:46.496Z,72.44
2022-11-20T22:00:19.925Z,72.82
2022-11-20T22:02:53.259Z,72.34
2022-11-20T22:05:26.397Z,72.83
2022-11-20T22:07:59.623Z,72.86
2022-11-20T22:10:32.785Z,72.49
2022-11-20T22:13:24.437Z,72.21
2022-11-20T22:16:02.863Z,72.54
2022-11-20T22:18:36.201Z,72.56
2022-11-20T22:21:10.221Z,72.59
2022-11-20T22:23:43.252Z,72.68
2022-11-20T22:26:18.649Z,72.85
2022-11-20T22:28:54.695Z,73.06
2022-11-20T22:31:29.359Z,73.01
2022-11-20T22:34:03.576Z,73.05
2022-11-20T22:36:38.383Z,72.88
2022-11-20T22:39:11.385Z,72.96
2022-11-20T22:41:44.228Z,72.60
2022-11-20T22:44:18.702Z,72.30
2022-11-20T22:46:51.987Z,72.43
2022-11-20T22:49:24.943Z,71.88
2022-11-20T22:51:57.996Z,72.08
2022-11-20T22:54:31.025Z,71.69
2022-11-20T22:57:03.873Z,71.55
2022-11-20T22:59:38.339Z,70.84
2022-11-20T23:02:11.483Z,71.16
2022-11-20T23:04:44.417Z,70.79
2022-11-20T23:07:17.223Z,71.14
2022-11-20T23:09:50.159Z,71.23
2022-11-20T23:12:23.115Z,71.50
2022-11-20T23:14:57.561Z,71.13
2022-11-20T23:17:31.118Z,71.67
2022-11-20T23:20:04.417Z,71.87
2022-11-20T23:22:37.233Z,71.98
2022-11-20T23:25:10.964Z,71.54
2022-11-20T23:27:44.052Z,72.04
2022-11-20T23:30:18.935Z,71.95
2022-11-20T23:32:51.803Z,71.79
2022-11-20T23:35:24.690Z,72.46
2022-11-20T23:37:57.694Z,72.77
2022-11-20T23:40:30.560Z,72.67
2022-11-20T23:43:18.481Z,73.62
2022-11-20T23:45:54.577Z,73.53
2022-11-20T23:48:29.384Z,73.86
2022-11-20T23:51:02.531Z,73.74
2022-11-20T23:53:36.084Z,74.02
2022-11-20T23:56:09.140Z,73.78
2022-11-20T23:58:42.111Z,74.41
